Briefing drone pour Maurs

Rechercher une autre localisation

Conditions de vol :


Nous sommes le : Vendredi 27 janvier 2023
Il est 01:02 UTC (02:02 LT)

Lever de soleil : 06:49 UTC (07:49 LT)
Coucher de soleil : 17:18 UTC (18:18 LT)

Météo

L'essentiel des conditions de vol

VIGILANCE MÉTÉO FRANCE - Cantal (15)
Vigilance Jaune : Neige-verglas / Grand-froid
CARTE TEMSI
CARTES DES FRONTS
METAR de LFLW
LFLW 270030Z AUTO 26002KT 9999 OVC012 M05/M06 Q1016

Date d'émission: 27/01/2023
Heure d'émission: 00:30 UTC
Vent: 260° pour 2 KT (4 km/h)
Visibilité horizontale: > 10 km
Plafond :
- Couvert à 1200ft (366m)
Température: -5 °C
Point de rosée: -6 °C
Humidité: 93%
Pression (QNH): 1016 hPa
Prévision 24h pour Aurillac (18 km)
Vent : 6° pour 2 KT (6 km/h)
Temperature Maxi: -5 °C
Temperature Min: -5 °C
Humidité : 96%
Condition : Nuageux



Warning: count(): Parameter must be an array or an object that implements Countable in /homepages/6/d509196549/htdocs/droneoxygene/briefing.php on line 743
WEBCAM POUR MAURS

Réglementation

Voler en sécurité

CARTES AERONAUTIQUE 1/500.000
CARTE AZBA (Reseau basse altitude)
CARTES VAC (LFLW)
SUP AIP




Chargement des AIP...
NOTAM (MAURS + Terrain à proximité / FIR )




Chargement des NOTAMS...
CONTACT PREFECTURE 15
Cantal (15) : [email protected]


Avertissement : Les données mises à disposition sont indicatives. Oxygène Drone ne pourra être tenu responsable de dégâts causés aux biens et aux personnes.